Cowichan Bay, Canada
Current Conditions -  °F | °C
As of 12:00 PM on Wednesday 28 Jan 2015 (Local Time) from CYYJ Reporting Station
Broken Clouds Broken Clouds  
Wind Chill: 44°   Ceiling: 3500
Heat Index: 46°   Visibility: 30mi
Dew Point: 41°   Wind: 6mph
Humidity: 81%   Direction: 280°W
Pressure: 30.41"   Gusts: NA
Location:  48.73°N, 123.62°W
Report Text: CYYJ 282000Z 28005KT 30SM FEW025 BKN035 08/05 A3041 RMK CU1SC6 SLP298
Loading
Personal Weather Stations






























Interactive Weather Map New forecast layout! Learn more

10-Day Weather Forecast

Advertisements
Track Severe Weather on mobile